Time;durP1;ratioP1;P1;durP2;ratioP2;P2;SDS_P1;SDS_P2;PMS_P1;PMS_P2;Temp;Humidity;BMP_temperature;BMP_pressure;BME280_temperature;BME280_humidity;BME280_pressure;Samples;Min_cycle;Max_cycle;Signal;HPM_P1;HPM_P2
2023/03/07 00:00:18;;;;;;;26.77;17.48;;;;;;;5.19;59.07;99499.28;4152107;28;20472;-66
2023/03/07 00:02:21;;;;;;;22.40;14.50;;;;;;;5.16;59.30;99489.78;4148013;28;20042;-67
2023/03/07 00:04:24;;;;;;;24.48;15.95;;;;;;;5.17;59.50;99494.09;4149959;28;20041;-66
2023/03/07 00:06:27;;;;;;;22.25;15.82;;;;;;;5.20;59.51;99499.31;4149809;28;20077;-66
2023/03/07 00:08:30;;;;;;;23.23;15.18;;;;;;;5.13;59.67;99489.72;4156203;28;20121;-66
2023/03/07 00:10:33;;;;;;;28.65;17.45;;;;;;;5.15;59.57;99487.16;4150999;28;20034;-66
2023/03/07 00:12:36;;;;;;;25.48;16.98;;;;;;;5.21;59.66;99495.91;4135956;28;20466;-67
2023/03/07 00:14:39;;;;;;;25.88;16.20;;;;;;;5.11;59.57;99488.81;4145034;28;20092;-67
2023/03/07 00:16:43;;;;;;;25.77;15.52;;;;;;;5.11;59.21;99491.41;4149459;28;20514;-67
2023/03/07 00:18:46;;;;;;;23.88;15.57;;;;;;;5.06;59.30;99493.00;4151487;28;20395;-67
2023/03/07 00:20:57;;;;;;;26.42;16.45;;;;;;;5.10;59.48;99487.06;4155201;28;20068;-66
2023/03/07 00:23:00;;;;;;;34.42;22.20;;;;;;;5.06;59.39;99483.56;4150948;28;20038;-66
2023/03/07 00:25:04;;;;;;;39.25;24.60;;;;;;;5.05;59.88;99486.09;4151312;28;20830;-66
2023/03/07 00:27:07;;;;;;;34.92;20.75;;;;;;;5.03;59.68;99490.38;4142941;28;20096;-66
2023/03/07 00:29:11;;;;;;;24.75;16.88;;;;;;;4.79;59.55;99483.84;4128370;28;20035;-66
2023/03/07 00:31:14;;;;;;;27.15;15.85;;;;;;;4.77;59.92;99484.66;4166568;28;21056;-66
2023/03/07 00:33:18;;;;;;;24.30;15.63;;;;;;;4.82;60.01;99483.91;4128715;28;20042;-66
2023/03/07 00:35:23;;;;;;;24.65;16.05;;;;;;;4.93;59.84;99479.00;4150227;28;20474;-66
2023/03/07 00:37:26;;;;;;;21.48;14.68;;;;;;;4.90;59.76;99477.22;4144626;28;20062;-66
2023/03/07 00:39:29;;;;;;;22.73;15.68;;;;;;;4.82;59.55;99480.47;4152733;28;20030;-66
2023/03/07 00:41:32;;;;;;;24.67;16.73;;;;;;;4.93;59.92;99479.00;4155576;28;20046;-66
2023/03/07 00:43:35;;;;;;;20.77;14.93;;;;;;;4.92;59.94;99478.97;4137199;28;20088;-65
2023/03/07 00:45:38;;;;;;;23.45;15.13;;;;;;;4.97;60.29;99475.66;4154073;28;20475;-66
2023/03/07 00:47:41;;;;;;;25.23;15.00;;;;;;;4.98;60.11;99476.50;4119123;28;20042;-66
2023/03/07 00:49:45;;;;;;;24.13;16.85;;;;;;;4.99;59.90;99470.53;4155199;28;20038;-65
2023/03/07 00:51:48;;;;;;;24.75;17.92;;;;;;;4.93;59.58;99465.25;4152861;28;20034;-65
2023/03/07 00:53:52;;;;;;;29.00;17.25;;;;;;;4.90;59.50;99460.91;4131916;28;20030;-65
2023/03/07 00:55:57;;;;;;;26.55;16.95;;;;;;;4.98;59.63;99461.03;4148386;28;20037;-65
2023/03/07 00:58:00;;;;;;;;;;;;;;;4.90;60.22;99459.19;4138923;28;20030;-65
2023/03/07 01:00:05;;;;;;;64.15;37.83;;;;;;;4.93;59.66;99454.94;4142857;28;19921;-65
2023/03/07 01:02:07;;;;;;;61.67;33.45;;;;;;;4.85;59.57;99453.09;4160141;28;20046;-66
2023/03/07 01:04:10;;;;;;;36.05;21.60;;;;;;;4.79;59.91;99452.06;4132905;28;20093;-66
2023/03/07 01:06:16;;;;;;;26.60;17.80;;;;;;;4.86;60.06;99449.69;4135587;28;20038;-66
2023/03/07 01:08:20;;;;;;;30.02;17.73;;;;;;;4.92;60.30;99448.06;4136024;28;20089;-65
2023/03/07 01:10:25;;;;;;;102.72;50.70;;;;;;;4.87;60.11;99440.25;4143429;28;20029;-66
2023/03/07 01:12:29;;;;;;;56.42;30.73;;;;;;;4.94;60.18;99441.25;4149473;28;20037;-66
2023/03/07 01:14:32;;;;;;;27.00;18.27;;;;;;;4.92;60.45;99440.31;4152489;28;20038;-66
2023/03/07 01:16:37;;;;;;;27.00;17.35;;;;;;;5.00;60.19;99441.38;4148093;28;20038;-66
2023/03/07 01:18:41;;;;;;;28.42;17.13;;;;;;;5.05;60.15;99439.72;4146887;28;20041;-66
2023/03/07 01:20:44;;;;;;;22.17;15.63;;;;;;;5.08;60.18;99434.63;4157863;28;20331;-66
2023/03/07 01:22:49;;;;;;;23.77;16.13;;;;;;;5.11;60.12;99431.25;4140833;28;20030;-66
2023/03/07 01:24:52;;;;;;;23.85;16.00;;;;;;;5.05;60.42;99426.84;4153763;28;20776;-65
2023/03/07 01:26:54;;;;;;;23.20;15.30;;;;;;;5.05;60.44;99427.75;4155686;28;20107;-66
2023/03/07 01:29:00;;;;;;;24.10;16.13;;;;;;;5.00;60.30;99431.06;4148949;28;20042;-67
2023/03/07 01:31:05;;;;;;;23.38;15.25;;;;;;;5.04;60.26;99427.72;4143405;28;20132;-65
2023/03/07 01:33:09;;;;;;;23.85;15.15;;;;;;;4.93;60.47;99435.22;4140623;28;20088;-66
2023/03/07 01:35:12;;;;;;;26.55;17.33;;;;;;;4.94;60.45;99428.38;4142769;28;20140;-66
2023/03/07 01:37:17;;;;;;;24.30;16.80;;;;;;;5.03;60.09;99425.97;4150878;28;20033;-66
2023/03/07 01:39:22;;;;;;;24.92;16.52;;;;;;;4.99;60.43;99425.03;4152869;28;20491;-66
2023/03/07 01:41:31;;;;;;;24.35;15.52;;;;;;;5.02;60.33;99419.06;4147796;28;20502;-66
2023/03/07 01:43:35;;;;;;;23.80;15.18;;;;;;;4.90;60.46;99419.69;4147053;28;20033;-66
2023/03/07 01:46:25;;;;;;;23.35;14.93;;;;;;;4.71;60.93;99421.03;4144184;28;20033;-66
2023/03/07 01:48:30;;;;;;;22.33;15.30;;;;;;;4.72;61.07;99408.19;4155485;28;20065;-66
2023/03/07 01:50:33;;;;;;;23.73;15.65;;;;;;;4.71;60.97;99409.00;4138688;28;20400;-66
2023/03/07 01:52:39;;;;;;;24.48;16.15;;;;;;;4.58;61.86;99416.47;4154865;28;20088;-66
2023/03/07 01:54:50;;;;;;;26.40;17.35;;;;;;;4.66;61.84;99412.34;4135926;28;20125;-66
2023/03/07 01:56:57;;;;;;;22.83;15.15;;;;;;;4.67;61.76;99412.38;4150551;28;20415;-66
2023/03/07 01:59:00;;;;;;;24.23;16.40;;;;;;;4.76;61.92;99405.66;4142251;28;20038;-66
2023/03/07 02:01:04;;;;;;;23.75;15.30;;;;;;;4.82;61.63;99406.69;4152738;28;20444;-66
2023/03/07 02:03:15;;;;;;;21.33;14.48;;;;;;;4.60;62.42;99401.91;4156470;28;20041;-66
2023/03/07 02:05:24;;;;;;;24.13;15.82;;;;;;;4.53;62.89;99406.06;4135066;28;20116;-66
2023/03/07 02:07:31;;;;;;;22.48;15.48;;;;;;;4.55;63.07;99394.94;4149421;28;20125;-66
2023/03/07 02:09:35;;;;;;;23.45;16.15;;;;;;;4.60;63.29;99391.59;4130431;28;20505;-66
2023/03/07 02:11:42;;;;;;;23.73;14.48;;;;;;;4.53;63.42;99401.78;4155844;28;20095;-66
2023/03/07 02:13:45;;;;;;;23.48;13.45;;;;;;;4.49;63.35;99389.69;4155708;28;20034;-66
2023/03/07 02:15:49;;;;;;;20.10;15.00;;;;;;;4.43;63.83;99386.13;4152678;28;20037;-66
2023/03/07 02:17:53;;;;;;;20.92;14.23;;;;;;;4.46;63.70;99392.19;4154645;28;20460;-66
2023/03/07 02:20:09;;;;;;;21.33;15.18;;;;;;;4.45;63.93;99389.59;4130735;28;20042;-66
2023/03/07 02:22:16;;;;;;;20.25;13.93;;;;;;;4.39;64.07;99392.03;4150643;28;20045;-66
2023/03/07 02:24:24;;;;;;;21.85;14.05;;;;;;;4.42;64.50;99389.53;4158254;28;20045;-66
2023/03/07 02:26:38;;;;;;;21.35;13.77;;;;;;;4.43;64.21;99402.41;4137454;28;20495;-66
2023/03/07 02:28:42;;;;;;;24.83;15.20;;;;;;;4.36;64.46;99391.09;4149982;28;20507;-66
2023/03/07 02:30:57;;;;;;;23.05;15.77;;;;;;;4.31;65.17;99381.59;4134202;28;20141;-66
2023/03/07 02:33:01;;;;;;;21.70;14.48;;;;;;;4.44;64.98;99378.44;4151967;28;20045;-66
2023/03/07 02:35:12;;;;;;;21.55;14.77;;;;;;;4.41;65.18;99374.91;4150936;28;20069;-66
2023/03/07 02:37:21;;;;;;;20.98;14.45;;;;;;;4.39;65.34;99372.31;4153232;28;20040;-66
2023/03/07 02:39:29;;;;;;;21.50;14.55;;;;;;;4.51;64.58;99370.00;4136299;28;20050;-66
2023/03/07 02:41:38;;;;;;;20.90;14.65;;;;;;;4.45;64.92;99377.56;4141192;28;20377;-66
2023/03/07 02:43:48;;;;;;;18.77;12.82;;;;;;;4.48;65.17;99371.63;4130558;28;20396;-66
2023/03/07 02:45:50;;;;;;;19.60;13.73;;;;;;;4.60;64.54;99371.00;4133890;28;20038;-66
2023/03/07 02:47:53;;;;;;;19.33;12.55;;;;;;;4.55;64.88;99371.78;4118199;28;20049;-66
2023/03/07 02:49:56;;;;;;;20.15;14.02;;;;;;;4.44;65.08;99367.25;4136991;28;20041;-66
2023/03/07 02:51:59;;;;;;;21.45;13.52;;;;;;;4.38;65.42;99365.44;4159750;28;20044;-66
2023/03/07 02:54:04;;;;;;;21.55;14.10;;;;;;;4.47;65.20;99367.34;4127042;28;20042;-66
2023/03/07 02:56:07;;;;;;;22.35;15.75;;;;;;;4.56;65.06;99364.94;4128685;28;20038;-66
2023/03/07 02:58:11;;;;;;;26.25;16.35;;;;;;;4.68;65.24;99360.03;4143051;28;20453;-65
2023/03/07 03:00:16;;;;;;;21.20;13.38;;;;;;;4.60;65.32;99360.72;4168377;28;20099;-65
2023/03/07 03:02:19;;;;;;;23.92;13.95;;;;;;;4.50;65.33;99363.13;4133935;28;20041;-66
2023/03/07 03:04:22;;;;;;;22.10;14.65;;;;;;;4.34;65.80;99350.78;4157830;28;20408;-66
2023/03/07 03:06:25;;;;;;;19.95;13.40;;;;;;;4.32;66.12;99357.56;4152696;28;20041;-65
2023/03/07 03:08:28;;;;;;;21.00;14.27;;;;;;;4.45;65.81;99358.69;4134798;28;20045;-65
2023/03/07 03:10:31;;;;;;;25.23;16.20;;;;;;;4.48;65.82;99354.50;4131810;28;20586;-66
2023/03/07 03:12:35;;;;;;;22.10;15.10;;;;;;;4.50;65.91;99351.97;4143937;28;20066;-65
2023/03/07 03:14:41;;;;;;;24.73;16.20;;;;;;;4.57;65.66;99347.78;4139129;28;20034;-65
2023/03/07 03:16:44;;;;;;;22.45;14.50;;;;;;;4.58;65.90;99344.38;4120180;28;20133;-65
2023/03/07 03:18:46;;;;;;;21.60;15.02;;;;;;;4.53;65.64;99349.44;4117384;28;20047;-65
2023/03/07 03:20:50;;;;;;;21.27;15.13;;;;;;;4.44;65.80;99347.56;4134389;28;20535;-66
2023/03/07 03:22:53;;;;;;;21.08;13.88;;;;;;;4.45;66.18;99348.41;4141353;28;20038;-65
2023/03/07 03:24:56;;;;;;;21.20;14.38;;;;;;;4.46;66.08;99348.44;4158223;28;20033;-66
2023/03/07 03:26:59;;;;;;;21.48;14.40;;;;;;;4.49;65.95;99353.66;4146159;28;20041;-66
2023/03/07 03:29:04;;;;;;;23.60;16.03;;;;;;;4.67;65.68;99355.75;4144773;28;20084;-66
2023/03/07 03:31:10;;;;;;;22.60;16.83;;;;;;;4.62;65.66;99351.34;4147695;28;20336;-65
2023/03/07 03:33:14;;;;;;;21.23;14.75;;;;;;;4.57;65.83;99358.09;4133358;28;20191;-65
2023/03/07 03:35:17;;;;;;;21.80;15.35;;;;;;;4.59;66.07;99344.41;4151739;28;20073;-66
2023/03/07 03:37:21;;;;;;;20.55;14.48;;;;;;;4.60;65.91;99342.69;4137962;28;21302;-66
2023/03/07 03:39:24;;;;;;;21.55;14.70;;;;;;;4.60;65.88;99340.13;4154903;28;20120;-66
2023/03/07 03:41:33;;;;;;;20.38;14.13;;;;;;;4.64;66.09;99344.50;4149710;28;20034;-65
2023/03/07 03:43:36;;;;;;;21.20;14.00;;;;;;;4.58;66.00;99334.94;4161640;28;20065;-66
2023/03/07 03:45:39;;;;;;;20.65;15.15;;;;;;;4.57;66.10;99332.34;4160638;28;20061;-66
2023/03/07 03:47:44;;;;;;;21.35;14.02;;;;;;;4.52;66.15;99327.97;4135695;28;20137;-66
2023/03/07 03:49:47;;;;;;;22.65;15.10;;;;;;;4.53;66.13;99326.28;4153507;28;20042;-65
2023/03/07 03:51:50;;;;;;;21.67;15.00;;;;;;;4.52;66.49;99325.41;4129370;28;20088;-66
2023/03/07 03:53:53;;;;;;;21.20;14.50;;;;;;;4.49;66.64;99325.34;4131388;28;20093;-66
2023/03/07 03:56:01;;;;;;;24.05;16.55;;;;;;;4.53;66.72;99321.13;4150087;28;20305;-66
2023/03/07 03:58:05;;;;;;;19.75;14.43;;;;;;;4.55;66.55;99319.44;4161275;28;20399;-65
2023/03/07 04:00:13;;;;;;;27.23;16.13;;;;;;;4.52;66.77;99309.09;4152825;28;20133;-66
2023/03/07 04:02:16;;;;;;;22.52;15.57;;;;;;;4.52;66.41;99309.94;4137883;28;20061;-66
2023/03/07 04:04:21;;;;;;;22.30;14.15;;;;;;;4.49;66.79;99304.75;4149226;28;20042;-65
2023/03/07 04:06:27;;;;;;;24.30;16.33;;;;;;;4.49;66.99;99306.47;4128196;28;20054;-66
2023/03/07 04:08:31;;;;;;;23.67;15.10;;;;;;;4.49;66.66;99309.03;4144483;28;20107;-65
2023/03/07 04:10:34;;;;;;;22.63;16.10;;;;;;;4.52;66.54;99307.38;4144461;28;20066;-65
2023/03/07 04:12:37;;;;;;;23.30;16.50;;;;;;;4.48;66.71;99304.72;4128736;28;20034;-66
2023/03/07 04:14:40;;;;;;;25.88;17.00;;;;;;;4.44;66.89;99301.22;4132533;28;20469;-65
2023/03/07 04:16:43;;;;;;;27.60;16.58;;;;;;;4.40;66.90;99302.00;4133165;28;20038;-66
2023/03/07 04:18:46;;;;;;;21.13;15.25;;;;;;;4.43;66.98;99302.06;4139687;28;20042;-65
2023/03/07 04:20:53;;;;;;;23.10;14.25;;;;;;;4.45;67.22;99297.78;4141211;28;20029;-66
2023/03/07 04:22:56;;;;;;;25.67;16.02;;;;;;;4.48;66.93;99299.56;4141195;28;20029;-66
2023/03/07 04:24:59;;;;;;;23.40;14.57;;;;;;;4.48;66.57;99292.75;4136783;28;20038;-66
2023/03/07 04:27:02;;;;;;;22.48;14.50;;;;;;;4.25;67.22;99291.38;4128831;28;20034;-65
2023/03/07 04:29:05;;;;;;;21.65;15.15;;;;;;;4.10;67.82;99289.38;4149541;28;20065;-66
2023/03/07 04:31:16;;;;;;;22.55;14.98;;;;;;;4.20;67.32;99291.28;4140914;28;20065;-66
2023/03/07 04:33:20;;;;;;;21.55;14.50;;;;;;;4.14;67.45;99286.88;4143931;28;20038;-66
2023/03/07 04:35:24;;;;;;;21.00;15.23;;;;;;;4.20;67.27;99283.56;4155611;28;20062;-66
2023/03/07 04:37:31;;;;;;;22.15;14.95;;;;;;;4.32;67.08;99285.53;4132609;28;20811;-66
2023/03/07 04:39:34;;;;;;;23.52;16.65;;;;;;;4.25;67.17;99287.13;4148501;28;20447;-66
2023/03/07 04:41:38;;;;;;;23.77;16.05;;;;;;;4.32;67.34;99288.09;4157124;28;20040;-66
2023/03/07 04:43:50;;;;;;;22.63;15.70;;;;;;;4.24;67.63;99287.09;4140838;28;20045;-66
2023/03/07 04:45:53;;;;;;;23.15;16.00;;;;;;;4.33;67.38;99284.69;4138235;28;20058;-67
2023/03/07 04:47:56;;;;;;;23.50;16.05;;;;;;;4.31;67.36;99278.66;4152366;28;20088;-67
2023/03/07 04:49:59;;;;;;;25.65;16.00;;;;;;;4.35;67.25;99277.88;4131727;28;20495;-67
2023/03/07 04:52:04;;;;;;;25.27;16.52;;;;;;;4.33;67.00;99277.84;4139329;28;20041;-66
2023/03/07 04:54:08;;;;;;;21.42;14.30;;;;;;;4.23;67.57;99269.91;4148519;28;20056;-66
2023/03/07 04:56:14;;;;;;;20.13;14.55;;;;;;;4.29;67.41;99270.91;4128500;28;20038;-66
2023/03/07 04:58:17;;;;;;;25.30;16.38;;;;;;;4.26;67.29;99269.97;4151540;28;20033;-66
2023/03/07 05:00:20;;;;;;;21.42;13.68;;;;;;;4.24;67.57;99269.09;4148473;28;20519;-66
2023/03/07 05:02:24;;;;;;;19.33;13.07;;;;;;;4.26;67.76;99275.13;4154963;28;21055;-66
2023/03/07 05:04:27;;;;;;;20.55;13.07;;;;;;;4.26;67.51;99280.25;4146737;28;20038;-66
2023/03/07 05:06:30;;;;;;;23.10;15.63;;;;;;;4.31;67.50;99274.38;4130922;28;20097;-66
2023/03/07 05:08:34;;;;;;;22.33;15.10;;;;;;;4.33;67.43;99264.13;4141402;28;20045;-66
2023/03/07 05:10:38;;;;;;;23.20;14.77;;;;;;;4.25;67.24;99258.81;4147705;28;20046;-66
2023/03/07 05:12:41;;;;;;;20.20;13.82;;;;;;;4.19;67.56;99269.84;4152927;28;20055;-66
2023/03/07 05:14:46;;;;;;;22.27;15.55;;;;;;;4.18;67.58;99262.97;4134815;28;20038;-66
2023/03/07 05:16:48;;;;;;;19.70;13.23;;;;;;;4.21;67.60;99258.75;4132401;28;20482;-65
2023/03/07 05:18:51;;;;;;;21.95;14.57;;;;;;;4.23;67.50;99265.63;4152548;28;20053;-66
2023/03/07 05:20:54;;;;;;;20.38;13.38;;;;;;;4.10;67.87;99259.34;4130708;28;20066;-66
2023/03/07 05:22:58;;;;;;;21.38;14.52;;;;;;;4.03;67.98;99252.38;4111582;28;20070;-66
2023/03/07 05:25:01;;;;;;;25.70;14.93;;;;;;;4.08;67.96;99248.19;4154635;28;20092;-65
2023/03/07 05:27:05;;;;;;;21.55;14.32;;;;;;;4.10;68.15;99249.06;4177924;22;20095;-67
2023/03/07 05:29:08;;;;;;;21.52;15.25;;;;;;;4.08;67.75;99244.75;4144349;28;20052;-67
2023/03/07 05:31:11;;;;;;;22.48;14.98;;;;;;;4.09;68.02;99249.94;4178156;28;20087;-67
2023/03/07 05:33:14;;;;;;;21.40;13.82;;;;;;;4.13;67.91;99256.88;4145635;28;20419;-67
2023/03/07 05:35:19;;;;;;;21.35;14.00;;;;;;;4.24;67.36;99249.38;4163202;28;20091;-67
2023/03/07 05:37:22;;;;;;;21.45;15.13;;;;;;;4.09;67.53;99241.31;4146996;28;20045;-67
2023/03/07 05:39:26;;;;;;;24.15;15.45;;;;;;;4.03;67.90;99247.25;4145827;28;20463;-66
2023/03/07 05:41:29;;;;;;;22.00;14.68;;;;;;;4.07;68.16;99245.59;4146519;28;20034;-69
2023/03/07 05:43:33;;;;;;;20.30;13.80;;;;;;;4.13;67.93;99243.13;4145941;28;20079;-67
2023/03/07 05:45:36;;;;;;;22.77;14.38;;;;;;;4.04;68.04;99243.81;4147650;28;20029;-67
2023/03/07 05:47:40;;;;;;;24.70;14.30;;;;;;;3.98;68.07;99243.69;4146203;28;20034;-67
2023/03/07 05:49:44;;;;;;;25.40;16.13;;;;;;;4.00;68.37;99232.59;4146805;28;20427;-67
2023/03/07 05:51:48;;;;;;;21.73;14.40;;;;;;;4.05;68.32;99236.97;4129525;28;20050;-68
2023/03/07 05:53:51;;;;;;;23.73;14.85;;;;;;;4.13;68.18;99231.16;4146553;28;20042;-67
2023/03/07 05:55:54;;;;;;;23.13;14.95;;;;;;;4.22;68.01;99242.44;4130376;28;20058;-67
2023/03/07 05:57:57;;;;;;;28.30;14.88;;;;;;;4.27;67.49;99238.28;4162700;28;20041;-68
2023/03/07 06:00:02;;;;;;;23.52;14.43;;;;;;;4.25;67.43;99227.97;4162576;28;20514;-67
2023/03/07 06:02:15;;;;;;;19.67;14.45;;;;;;;4.26;67.68;99228.81;4141606;28;20488;-67
2023/03/07 06:04:18;;;;;;;22.23;14.23;;;;;;;4.22;67.86;99232.16;4162762;28;20127;-67
2023/03/07 06:06:21;;;;;;;24.92;14.43;;;;;;;4.23;67.42;99221.03;4141254;28;20144;-67
2023/03/07 06:08:24;;;;;;;22.20;14.00;;;;;;;4.25;67.93;99227.97;4144503;28;20061;-68
2023/03/07 06:10:27;;;;;;;18.42;13.05;;;;;;;4.27;67.52;99223.69;4146117;28;20034;-68
2023/03/07 06:12:31;;;;;;;19.77;12.57;;;;;;;4.22;67.64;99227.91;4146183;28;20063;-68
2023/03/07 06:14:34;;;;;;;20.55;13.75;;;;;;;4.24;67.86;99227.94;4146301;28;20122;-67
2023/03/07 06:16:38;;;;;;;22.50;14.05;;;;;;;4.28;67.74;99222.88;4144852;28;20030;-68
2023/03/07 06:18:41;;;;;;;19.23;13.45;;;;;;;4.26;67.67;99224.53;4145615;28;20049;-68
2023/03/07 06:20:45;;;;;;;20.05;13.63;;;;;;;4.22;67.54;99229.59;4145915;28;20061;-67
2023/03/07 06:22:48;;;;;;;18.85;13.02;;;;;;;4.34;67.74;99235.84;4146215;28;20384;-68
2023/03/07 06:24:51;;;;;;;17.73;12.35;;;;;;;4.33;67.54;99221.25;4146178;28;20186;-68
2023/03/07 06:26:53;;;;;;;22.30;13.23;;;;;;;4.37;67.43;99237.63;4146377;28;20442;-67
2023/03/07 06:28:59;;;;;;;19.52;13.32;;;;;;;4.26;66.85;99234.81;4145849;28;20443;-68
2023/03/07 06:31:08;;;;;;;21.25;13.18;;;;;;;4.37;67.04;99229.91;4144203;28;20084;-68
2023/03/07 06:33:12;;;;;;;19.70;12.68;;;;;;;4.22;67.09;99229.59;4160897;28;20399;-68
2023/03/07 06:35:16;;;;;;;20.73;12.10;;;;;;;4.24;66.96;99231.34;4146037;28;20474;-68
2023/03/07 06:37:20;;;;;;;22.23;13.65;;;;;;;4.04;66.80;99233.53;4145103;28;20061;-67
2023/03/07 06:39:22;;;;;;;19.58;12.32;;;;;;;3.97;67.36;99229.97;4145811;28;20398;-68
2023/03/07 06:41:28;;;;;;;21.00;12.18;;;;;;;4.04;67.65;99233.53;4128875;28;20050;-68
2023/03/07 06:43:34;;;;;;;19.95;12.80;;;;;;;4.05;67.41;99230.13;4145218;28;20104;-67
2023/03/07 06:45:37;;;;;;;16.73;12.07;;;;;;;4.08;67.14;99237.91;4146892;28;20057;-68
2023/03/07 06:47:39;;;;;;;18.58;11.50;;;;;;;4.17;67.32;99238.06;4143453;28;20053;-67
2023/03/07 06:49:45;;;;;;;19.25;13.50;;;;;;;4.22;66.85;99232.16;4144043;28;20037;-67
2023/03/07 06:51:48;;;;;;;21.33;12.77;;;;;;;4.33;66.51;99239.25;4145362;28;20033;-68
2023/03/07 06:53:52;;;;;;;19.90;13.32;;;;;;;4.39;66.47;99242.78;4144953;28;20042;-68
2023/03/07 06:55:54;;;;;;;17.02;12.57;;;;;;;4.25;66.32;99240.81;4145476;28;20076;-68
2023/03/07 06:57:57;;;;;;;21.75;11.65;;;;;;;4.24;66.42;99245.94;4145770;28;20144;-67
2023/03/07 07:00:01;;;;;;;17.63;11.52;;;;;;;4.23;65.72;99245.03;4129149;28;20053;-68
2023/03/07 07:02:06;;;;;;;17.50;11.23;;;;;;;4.32;66.33;99249.50;4157492;28;20621;-68
2023/03/07 07:04:10;;;;;;;18.85;12.88;;;;;;;4.37;66.29;99247.91;4144298;28;20168;-67
2023/03/07 07:06:17;;;;;;;16.25;12.15;;;;;;;4.43;65.92;99242.88;4127113;28;20405;-68
2023/03/07 07:08:20;;;;;;;18.80;11.90;;;;;;;4.48;65.74;99249.00;4160682;28;20041;-68
2023/03/07 07:10:23;;;;;;;17.77;12.25;;;;;;;4.58;65.45;99242.28;4128482;28;20049;-68
2023/03/07 07:12:26;;;;;;;18.00;11.88;;;;;;;4.64;65.15;99241.53;4157727;28;20092;-67
2023/03/07 07:14:30;;;;;;;19.98;11.35;;;;;;;4.64;65.08;99237.25;4162024;28;20463;-68
2023/03/07 07:16:35;;;;;;;18.15;11.50;;;;;;;4.59;65.14;99243.19;4161363;28;20049;-68
2023/03/07 07:18:38;;;;;;;;;;;;;;;4.61;64.58;99239.75;4160939;28;20034;-68
2023/03/07 07:20:42;;;;;;;18.17;11.82;;;;;;;4.55;65.07;99243.09;4145199;28;20439;-68
2023/03/07 07:22:46;;;;;;;19.40;11.65;;;;;;;4.62;65.19;99238.09;4129182;28;20038;-68
2023/03/07 07:24:49;;;;;;;20.88;12.65;;;;;;;4.57;64.96;99239.69;4145367;28;20050;-68
2023/03/07 07:26:52;;;;;;;16.85;10.65;;;;;;;4.68;64.15;99236.47;4145072;28;20474;-68
2023/03/07 07:28:55;;;;;;;18.17;11.98;;;;;;;4.68;64.54;99233.03;4128812;28;20445;-68
2023/03/07 07:30:59;;;;;;;19.65;11.25;;;;;;;4.79;64.07;99234.09;4143589;28;20041;-68
2023/03/07 07:33:03;;;;;;;17.17;10.82;;;;;;;4.78;63.60;99245.22;4138452;28;20062;-68
2023/03/07 07:35:08;;;;;;;20.85;11.95;;;;;;;4.89;63.58;99232.53;4139249;28;20049;-68
2023/03/07 07:37:11;;;;;;;46.45;13.40;;;;;;;4.86;63.18;99238.53;4144687;28;20053;-68
2023/03/07 07:39:16;;;;;;;18.98;10.80;;;;;;;4.82;63.39;99236.72;4127696;28;20133;-68
2023/03/07 07:41:20;;;;;;;16.42;11.48;;;;;;;4.88;63.41;99231.69;4160054;28;20042;-67
2023/03/07 07:43:26;;;;;;;16.20;10.90;;;;;;;4.97;63.28;99235.25;4144400;28;20096;-68
2023/03/07 07:45:38;;;;;;;18.48;11.82;;;;;;;4.99;62.85;99233.56;4145104;28;20069;-69
2023/03/07 07:47:42;;;;;;;16.40;10.23;;;;;;;5.11;62.64;99230.31;4161261;28;20459;-69
2023/03/07 07:49:48;;;;;;;20.27;11.68;;;;;;;5.14;62.87;99228.69;4160265;28;20374;-68
2023/03/07 07:51:51;;;;;;;20.48;10.93;;;;;;;5.14;62.34;99228.69;4144860;28;20049;-68
2023/03/07 07:53:54;;;;;;;17.15;11.45;;;;;;;5.19;62.06;99232.19;4143715;28;20124;-68
2023/03/07 07:55:58;;;;;;;18.10;11.80;;;;;;;5.33;61.08;99227.25;4127908;28;20433;-68
2023/03/07 07:58:01;;;;;;;17.77;11.23;;;;;;;5.10;61.88;99231.19;4161351;28;20029;-68
2023/03/07 08:00:05;;;;;;;19.42;11.32;;;;;;;5.07;62.01;99229.41;4145639;28;20400;-68
2023/03/07 08:02:13;;;;;;;16.90;10.05;;;;;;;5.02;62.19;99233.63;4146451;28;20076;-68
2023/03/07 08:04:16;;;;;;;17.33;10.45;;;;;;;5.00;62.12;99230.16;4145907;28;20048;-68
2023/03/07 08:06:20;;;;;;;14.63;9.98;;;;;;;5.16;62.03;99232.13;4145038;28;20034;-68
2023/03/07 08:08:22;;;;;;;14.77;9.70;;;;;;;5.18;62.37;99225.31;4146081;28;20380;-67
2023/03/07 08:10:25;;;;;;;15.90;10.55;;;;;;;5.19;61.81;99221.88;4145678;28;20499;-68
2023/03/07 08:12:29;;;;;;;16.02;9.65;;;;;;;5.25;61.31;99221.97;4160036;28;20088;-69
2023/03/07 08:14:33;;;;;;;17.52;10.73;;;;;;;5.34;61.13;99217.81;4145813;28;20416;-68
2023/03/07 08:16:36;;;;;;;18.83;10.63;;;;;;;5.43;60.85;99220.50;4146084;28;20033;-68
2023/03/07 08:18:39;;;;;;;14.80;10.18;;;;;;;5.43;61.20;99223.09;4145365;28;20030;-69
2023/03/07 08:20:42;;;;;;;15.30;9.55;;;;;;;5.58;60.75;99215.59;4145579;28;20037;-68
2023/03/07 08:22:48;;;;;;;15.80;10.02;;;;;;;5.59;60.63;99212.19;4144830;28;20048;-68
2023/03/07 08:24:50;;;;;;;24.05;10.65;;;;;;;5.70;61.20;99219.19;4145327;28;20038;-68
2023/03/07 08:26:53;;;;;;;16.30;9.77;;;;;;;5.79;60.55;99211.56;4145486;28;20034;-68
2023/03/07 08:28:58;;;;;;;14.85;10.48;;;;;;;5.94;59.95;99208.31;4144717;28;20038;-68
2023/03/07 08:31:06;;;;;;;16.42;10.65;;;;;;;5.92;60.42;99213.47;4145174;28;20030;-68
2023/03/07 08:33:09;;;;;;;14.55;9.55;;;;;;;5.86;59.79;99208.22;4144186;28;20038;-68
2023/03/07 08:35:12;;;;;;;15.90;9.73;;;;;;;5.88;59.88;99214.25;4138197;28;20073;-68
2023/03/07 08:37:15;;;;;;;14.02;9.32;;;;;;;5.89;60.25;99213.44;4146176;28;20168;-68
2023/03/07 08:39:18;;;;;;;19.10;9.60;;;;;;;5.89;59.54;99213.44;4144359;28;20046;-67
2023/03/07 08:41:22;;;;;;;16.88;10.75;;;;;;;5.84;59.33;99207.34;4145326;28;20056;-68
2023/03/07 08:43:25;;;;;;;16.45;10.35;;;;;;;5.98;59.68;99207.53;4145618;28;20048;-68
2023/03/07 08:45:29;;;;;;;18.15;11.13;;;;;;;6.05;58.72;99205.94;4145451;28;20045;-67
2023/03/07 08:47:32;;;;;;;12.88;8.80;;;;;;;5.99;59.00;99201.56;4143779;28;20105;-68
2023/03/07 08:49:35;;;;;;;17.17;9.75;;;;;;;6.13;58.90;99203.44;4145472;28;20042;-68
2023/03/07 08:51:38;;;;;;;14.40;9.88;;;;;;;6.18;59.12;99205.22;4126594;28;20049;-70
2023/03/07 08:53:43;;;;;;;14.32;9.13;;;;;;;6.27;58.99;99195.00;4144573;28;20038;-68
2023/03/07 08:55:45;;;;;;;15.40;10.25;;;;;;;6.32;58.54;99194.19;4145452;28;20385;-68
2023/03/07 08:57:48;;;;;;;13.80;9.40;;;;;;;6.37;57.86;99192.53;4144518;28;20513;-68
2023/03/07 08:59:51;;;;;;;13.05;9.30;;;;;;;6.25;57.93;99194.13;4145500;28;20042;-68
2023/03/07 09:01:57;;;;;;;14.38;10.30;;;;;;;6.17;58.16;99202.63;4127918;28;20121;-68
2023/03/07 09:04:00;;;;;;;15.50;8.68;;;;;;;6.28;58.56;99193.28;4144660;28;20120;-68
2023/03/07 09:06:04;;;;;;;13.82;9.35;;;;;;;6.29;57.97;99195.00;4141000;28;20042;-68
2023/03/07 09:08:07;;;;;;;14.35;9.23;;;;;;;6.35;57.67;99195.09;4140655;28;20037;-68
2023/03/07 09:10:11;;;;;;;14.15;8.38;;;;;;;6.22;56.87;99191.50;4147373;28;20038;-68
2023/03/07 09:12:14;;;;;;;14.32;9.30;;;;;;;6.26;56.90;99188.13;4148054;28;20065;-69
2023/03/07 09:14:17;;;;;;;16.73;9.23;;;;;;;6.28;56.95;99190.72;4148270;28;20479;-68
2023/03/07 09:16:21;;;;;;;14.60;9.48;;;;;;;6.35;57.19;99192.50;4148211;28;20518;-67
2023/03/07 09:18:25;;;;;;;17.08;9.50;;;;;;;6.43;57.08;99190.00;4148075;28;20042;-68
2023/03/07 09:20:28;;;;;;;15.25;9.07;;;;;;;6.63;57.46;99185.91;4146772;28;20117;-68
2023/03/07 09:22:31;;;;;;;14.70;8.82;;;;;;;6.60;56.87;99180.72;4148155;28;20041;-68
2023/03/07 09:24:33;;;;;;;16.45;9.73;;;;;;;6.39;55.47;99175.31;4143290;28;20452;-68
2023/03/07 09:26:36;;;;;;;14.30;9.32;;;;;;;6.50;56.19;99173.72;4148066;28;20052;-69
2023/03/07 09:28:40;;;;;;;12.50;8.00;;;;;;;6.52;56.35;99177.19;4147917;28;20121;-69
2023/03/07 09:30:43;;;;;;;13.77;8.70;;;;;;;6.59;55.11;99173.81;4147433;28;20049;-69
2023/03/07 09:32:45;;;;;;;13.90;8.52;;;;;;;6.58;54.57;99174.66;4146834;28;20049;-68
2023/03/07 09:34:51;;;;;;;11.60;8.02;;;;;;;6.84;55.43;99168.00;4145086;28;20038;-68
2023/03/07 09:36:54;;;;;;;11.82;7.70;;;;;;;7.01;55.06;99165.53;4147618;28;20545;-68
2023/03/07 09:38:57;;;;;;;10.77;7.03;;;;;;;7.28;54.01;99165.72;4147265;28;20056;-69